sensor_id;sensor_type;location;lat;lon;timestamp;pressure;altitude;pressure_sealevel;temperature;humidity
62418;BME280;48456;54.242;10.280;2023-04-03T00:01:25;103235.13;;;-2.88;100.00
62418;BME280;48456;54.242;10.280;2023-04-03T00:03:51;103240.94;;;-2.90;100.00
62418;BME280;48456;54.242;10.280;2023-04-03T00:06:18;103247.06;;;-2.90;100.00
62418;BME280;48456;54.242;10.280;2023-04-03T00:08:44;103243.28;;;-2.93;100.00
62418;BME280;48456;54.242;10.280;2023-04-03T00:11:11;103248.19;;;-2.96;100.00
62418;BME280;48456;54.242;10.280;2023-04-03T00:13:37;103250.63;;;-2.98;100.00
62418;BME280;48456;54.242;10.280;2023-04-03T00:16:04;103250.63;;;-2.98;100.00
62418;BME280;48456;54.242;10.280;2023-04-03T00:18:31;103260.22;;;-2.97;100.00
62418;BME280;48456;54.242;10.280;2023-04-03T00:20:57;103257.47;;;-2.98;100.00
62418;BME280;48456;54.242;10.280;2023-04-03T00:23:24;103254.78;;;-3.00;100.00
62418;BME280;48456;54.242;10.280;2023-04-03T00:25:50;103252.03;;;-3.02;100.00
62418;BME280;48456;54.242;10.280;2023-04-03T00:28:17;103251.13;;;-3.02;100.00
62418;BME280;48456;54.242;10.280;2023-04-03T00:30:43;103252.03;;;-3.02;100.00
62418;BME280;48456;54.242;10.280;2023-04-03T00:33:12;103249.16;;;-3.05;100.00
62418;BME280;48456;54.242;10.280;2023-04-03T00:35:39;103260.16;;;-3.07;100.00
62418;BME280;48456;54.242;10.280;2023-04-03T00:38:06;103261.41;;;-3.13;100.00
62418;BME280;48456;54.242;10.280;2023-04-03T00:40:33;103264.16;;;-3.11;100.00
62418;BME280;48456;54.242;10.280;2023-04-03T00:43:01;103263.22;;;-3.11;100.00
62418;BME280;48456;54.242;10.280;2023-04-03T00:47:56;103264.75;;;-3.14;100.00
62418;BME280;48456;54.242;10.280;2023-04-03T00:50:26;103272.41;;;-3.15;100.00
62418;BME280;48456;54.242;10.280;2023-04-03T00:52:53;103273.78;;;-3.19;100.00
62418;BME280;48456;54.242;10.280;2023-04-03T00:55:20;103264.97;;;-3.21;100.00
62418;BME280;48456;54.242;10.280;2023-04-03T00:57:46;103268.59;;;-3.19;100.00
62418;BME280;48456;54.242;10.280;2023-04-03T01:00:14;103265.72;;;-3.22;100.00
62418;BME280;48456;54.242;10.280;2023-04-03T01:02:43;103269.09;;;-3.23;100.00
62418;BME280;48456;54.242;10.280;2023-04-03T01:05:09;103264.41;;;-3.27;100.00
62418;BME280;48456;54.242;10.280;2023-04-03T01:07:36;103266.22;;;-3.26;100.00
62418;BME280;48456;54.242;10.280;2023-04-03T01:10:05;103271.38;;;-3.26;100.00
62418;BME280;48456;54.242;10.280;2023-04-03T01:12:33;103266.84;;;-3.29;100.00
62418;BME280;48456;54.242;10.280;2023-04-03T01:15:10;103269.28;;;-3.30;100.00
62418;BME280;48456;54.242;10.280;2023-04-03T01:17:44;103269.28;;;-3.30;100.00
62418;BME280;48456;54.242;10.280;2023-04-03T01:28:05;103267.22;;;-3.34;100.00
62418;BME280;48456;54.242;10.280;2023-04-03T01:30:33;103256.72;;;-3.36;100.00
62418;BME280;48456;54.242;10.280;2023-04-03T01:33:01;103257.34;;;-3.38;100.00
62418;BME280;48456;54.242;10.280;2023-04-03T01:35:27;103263.88;;;-3.42;100.00
62418;BME280;48456;54.242;10.280;2023-04-03T01:37:54;103254.94;;;-3.46;100.00
62418;BME280;48456;54.242;10.280;2023-04-03T01:40:21;103262.56;;;-3.47;100.00
62418;BME280;48456;54.242;10.280;2023-04-03T01:42:47;103256.31;;;-3.49;100.00
62418;BME280;48456;54.242;10.280;2023-04-03T01:45:13;103254.22;;;-3.54;100.00
62418;BME280;48456;54.242;10.280;2023-04-03T01:47:40;103258.34;;;-3.56;100.00
62418;BME280;48456;54.242;10.280;2023-04-03T01:50:06;103254.97;;;-3.55;100.00
62418;BME280;48456;54.242;10.280;2023-04-03T01:52:33;103255.91;;;-3.54;100.00
62418;BME280;48456;54.242;10.280;2023-04-03T01:54:59;103253.03;;;-3.57;100.00
62418;BME280;48456;54.242;10.280;2023-04-03T01:57:25;103258.97;;;-3.58;100.00
62418;BME280;48456;54.242;10.280;2023-04-03T01:59:52;103253.03;;;-3.57;100.00
62418;BME280;48456;54.242;10.280;2023-04-03T02:02:18;103260.78;;;-3.57;100.00
62418;BME280;48456;54.242;10.280;2023-04-03T02:04:46;103263.84;;;-3.61;100.00
62418;BME280;48456;54.242;10.280;2023-04-03T02:07:12;103260.22;;;-3.63;100.00
62418;BME280;48456;54.242;10.280;2023-04-03T02:09:39;103263.56;;;-3.65;100.00
62418;BME280;48456;54.242;10.280;2023-04-03T02:12:05;103262.81;;;-3.63;100.00
62418;BME280;48456;54.242;10.280;2023-04-03T02:14:32;103263.69;;;-3.63;100.00
62418;BME280;48456;54.242;10.280;2023-04-03T02:17:00;103263.69;;;-3.63;100.00
62418;BME280;48456;54.242;10.280;2023-04-03T02:19:27;103272.09;;;-3.66;100.00
62418;BME280;48456;54.242;10.280;2023-04-03T02:21:53;103261.03;;;-3.73;100.00
62418;BME280;48456;54.242;10.280;2023-04-03T02:24:19;103265.28;;;-3.74;100.00
62418;BME280;48456;54.242;10.280;2023-04-03T02:26:46;103267.72;;;-3.75;100.00
62418;BME280;48456;54.242;10.280;2023-04-03T02:29:12;103270.16;;;-3.77;100.00
62418;BME280;48456;54.242;10.280;2023-04-03T02:31:38;103269.41;;;-3.76;100.00
62418;BME280;48456;54.242;10.280;2023-04-03T02:34:04;103273.38;;;-3.80;100.00
62418;BME280;48456;54.242;10.280;2023-04-03T02:36:31;103270.16;;;-3.77;100.00
62418;BME280;48456;54.242;10.280;2023-04-03T02:38:58;103270.66;;;-3.81;100.00
62418;BME280;48456;54.242;10.280;2023-04-03T02:41:24;103267.31;;;-3.80;100.00
62418;BME280;48456;54.242;10.280;2023-04-03T02:43:53;103267.94;;;-3.83;100.00
62418;BME280;48456;54.242;10.280;2023-04-03T02:46:20;103266.84;;;-3.85;100.00
62418;BME280;48456;54.242;10.280;2023-04-03T02:48:46;103268.66;;;-3.84;100.00
62418;BME280;48456;54.242;10.280;2023-04-03T02:51:13;103260.78;;;-3.85;100.00
62418;BME280;48456;54.242;10.280;2023-04-03T02:53:39;103262.47;;;-3.86;100.00
62418;BME280;48456;54.242;10.280;2023-04-03T02:56:05;103260.34;;;-3.90;100.00
62418;BME280;48456;54.242;10.280;2023-04-03T02:58:31;103267.25;;;-3.99;100.00
62418;BME280;48456;54.242;10.280;2023-04-03T03:00:58;103263.16;;;-4.06;100.00
62418;BME280;48456;54.242;10.280;2023-04-03T03:03:24;103260.25;;;-4.00;100.00
62418;BME280;48456;54.242;10.280;2023-04-03T03:06:00;103271.78;;;-3.97;100.00
62418;BME280;48456;54.242;10.280;2023-04-03T03:08:26;103262.97;;;-3.99;100.00
62418;BME280;48456;54.242;10.280;2023-04-03T03:10:53;103264.66;;;-3.99;100.00
62418;BME280;48456;54.242;10.280;2023-04-03T03:13:19;103263.25;;;-3.96;100.00
62418;BME280;48456;54.242;10.280;2023-04-03T03:15:46;103262.22;;;-3.98;100.00
62418;BME280;48456;54.242;10.280;2023-04-03T03:18:12;103263.56;;;-4.01;100.00
62418;BME280;48456;54.242;10.280;2023-04-03T03:20:38;103267.09;;;-4.01;100.00
62418;BME280;48456;54.242;10.280;2023-04-03T03:23:05;103269.66;;;-4.01;100.00
62418;BME280;48456;54.242;10.280;2023-04-03T03:25:31;103277.44;;;-4.01;100.00
62418;BME280;48456;54.242;10.280;2023-04-03T03:27:58;103272.25;;;-4.01;100.00
62418;BME280;48456;54.242;10.280;2023-04-03T03:30:24;103272.09;;;-4.02;100.00
62418;BME280;48456;54.242;10.280;2023-04-03T03:32:51;103271.19;;;-4.03;100.00
62418;BME280;48456;54.242;10.280;2023-04-03T03:35:17;103274.13;;;-4.09;100.00
62418;BME280;48456;54.242;10.280;2023-04-03T03:37:43;103276.56;;;-4.10;100.00
62418;BME280;48456;54.242;10.280;2023-04-03T03:40:10;103270.94;;;-4.15;100.00
62418;BME280;48456;54.242;10.280;2023-04-03T03:42:38;103262.41;;;-4.14;100.00
62418;BME280;48456;54.242;10.280;2023-04-03T03:45:05;103273.66;;;-4.13;100.00
62418;BME280;48456;54.242;10.280;2023-04-03T03:47:32;103271.09;;;-4.13;100.00
62418;BME280;48456;54.242;10.280;2023-04-03T03:49:58;103271.84;;;-4.14;100.00
62418;BME280;48456;54.242;10.280;2023-04-03T03:52:24;103274.28;;;-4.16;100.00
62418;BME280;48456;54.242;10.280;2023-04-03T03:54:51;103276.88;;;-4.16;100.00
62418;BME280;48456;54.242;10.280;2023-04-03T03:57:17;103277.34;;;-4.20;100.00
62418;BME280;48456;54.242;10.280;2023-04-03T03:59:44;103279.91;;;-4.20;100.00
62418;BME280;48456;54.242;10.280;2023-04-03T04:02:10;103289.34;;;-4.21;100.00
62418;BME280;48456;54.242;10.280;2023-04-03T04:04:37;103283.56;;;-4.18;100.00
62418;BME280;48456;54.242;10.280;2023-04-03T04:07:03;103282.81;;;-4.17;100.00
62418;BME280;48456;54.242;10.280;2023-04-03T04:09:30;103277.66;;;-4.17;100.00
62418;BME280;48456;54.242;10.280;2023-04-03T04:11:56;103278.22;;;-4.20;100.00
62418;BME280;48456;54.242;10.280;2023-04-03T04:14:22;103283.41;;;-4.20;100.00
62418;BME280;48456;54.242;10.280;2023-04-03T04:16:49;103289.81;;;-4.25;100.00
62418;BME280;48456;54.242;10.280;2023-04-03T04:19:15;103290.72;;;-4.24;100.00
62418;BME280;48456;54.242;10.280;2023-04-03T04:21:42;103292.84;;;-4.29;100.00
62418;BME280;48456;54.242;10.280;2023-04-03T04:24:08;103288.91;;;-4.25;100.00
62418;BME280;48456;54.242;10.280;2023-04-03T04:26:35;103296.38;;;-4.28;100.00
62418;BME280;48456;54.242;10.280;2023-04-03T04:29:01;103299.72;;;-4.29;100.00
62418;BME280;48456;54.242;10.280;2023-04-03T04:31:27;103304.13;;;-4.28;100.00
62418;BME280;48456;54.242;10.280;2023-04-03T04:33:54;103307.63;;;-4.28;100.00
62418;BME280;48456;54.242;10.280;2023-04-03T04:36:20;103301.06;;;-4.24;100.00
62418;BME280;48456;54.242;10.280;2023-04-03T04:38:47;103303.16;;;-4.11;100.00
62418;BME280;48456;54.242;10.280;2023-04-03T04:41:13;103303.59;;;-4.07;100.00
62418;BME280;48456;54.242;10.280;2023-04-03T04:43:39;103311.97;;;-4.09;100.00
62418;BME280;48456;54.242;10.280;2023-04-03T04:46:07;103316.84;;;-4.12;100.00
62418;BME280;48456;54.242;10.280;2023-04-03T04:48:34;103317.31;;;-4.17;100.00
62418;BME280;48456;54.242;10.280;2023-04-03T04:51:01;103321.88;;;-4.14;100.00
62418;BME280;48456;54.242;10.280;2023-04-03T04:53:27;103314.56;;;-4.09;100.00
62418;BME280;48456;54.242;10.280;2023-04-03T04:55:54;103315.50;;;-4.09;100.00
62418;BME280;48456;54.242;10.280;2023-04-03T04:58:20;103320.50;;;-4.10;100.00
62418;BME280;48456;54.242;10.280;2023-04-03T05:00:47;103320.34;;;-4.12;100.00
62418;BME280;48456;54.242;10.280;2023-04-03T05:03:13;103320.81;;;-4.16;100.00
62418;BME280;48456;54.242;10.280;2023-04-03T05:05:40;103314.09;;;-4.14;100.00
62418;BME280;48456;54.242;10.280;2023-04-03T05:08:06;103321.88;;;-4.14;100.00
62418;BME280;48456;54.242;10.280;2023-04-03T05:10:34;103329.63;;;-4.14;100.00
62418;BME280;48456;54.242;10.280;2023-04-03T05:13:01;103320.19;;;-4.13;100.00
62418;BME280;48456;54.242;10.280;2023-04-03T05:15:27;103327.50;;;-4.09;100.00
62418;BME280;48456;54.242;10.280;2023-04-03T05:17:53;103324.44;;;-4.05;100.00
62418;BME280;48456;54.242;10.280;2023-04-03T05:20:20;103335.09;;;-4.02;100.00
62418;BME280;48456;54.242;10.280;2023-04-03T05:22:46;103330.19;;;-3.99;100.00
62418;BME280;48456;54.242;10.280;2023-04-03T05:25:13;103331.41;;;-3.95;100.00
62418;BME280;48456;54.242;10.280;2023-04-03T05:27:39;103324.84;;;-3.92;100.00
62418;BME280;48456;54.242;10.280;2023-04-03T05:30:05;103330.19;;;-3.90;100.00
62418;BME280;48456;54.242;10.280;2023-04-03T05:32:32;103332.28;;;-3.86;100.00
62418;BME280;48456;54.242;10.280;2023-04-03T05:34:58;103336.13;;;-3.91;100.00
62418;BME280;48456;54.242;10.280;2023-04-03T05:37:26;103335.91;;;-3.84;100.00
62418;BME280;48456;54.242;10.280;2023-04-03T05:39:52;103340.34;;;-3.83;100.00
62418;BME280;48456;54.242;10.280;2023-04-03T05:42:19;103343.50;;;-3.76;100.00
62418;BME280;48456;54.242;10.280;2023-04-03T05:44:45;103345.94;;;-3.69;100.00
62418;BME280;48456;54.242;10.280;2023-04-03T05:47:13;103355.34;;;-3.61;100.00
62418;BME280;48456;54.242;10.280;2023-04-03T05:49:39;103355.00;;;-3.55;100.00
62418;BME280;48456;54.242;10.280;2023-04-03T05:52:12;103353.63;;;-3.52;100.00
62418;BME280;48456;54.242;10.280;2023-04-03T05:54:43;103361.06;;;-3.46;100.00
62418;BME280;48456;54.242;10.280;2023-04-03T05:57:12;103359.19;;;-3.38;100.00
62418;BME280;48456;54.242;10.280;2023-04-03T05:59:39;103363.56;;;-3.28;100.00
62418;BME280;48456;54.242;10.280;2023-04-03T06:02:05;103367.78;;;-3.20;100.00
62418;BME280;48456;54.242;10.280;2023-04-03T06:04:32;103370.19;;;-3.13;100.00
62418;BME280;48456;54.242;10.280;2023-04-03T06:06:59;103360.97;;;-3.00;100.00
62418;BME280;48456;54.242;10.280;2023-04-03T06:09:26;103370.34;;;-2.92;100.00
62418;BME280;48456;54.242;10.280;2023-04-03T06:11:55;103365.53;;;-2.78;100.00
62418;BME280;48456;54.242;10.280;2023-04-03T06:14:22;103365.09;;;-2.64;100.00
62418;BME280;48456;54.242;10.280;2023-04-03T06:16:48;103366.81;;;-2.45;100.00
62418;BME280;48456;54.242;10.280;2023-04-03T06:19:15;103364.03;;;-2.27;100.00
62418;BME280;48456;54.242;10.280;2023-04-03T06:21:42;103365.03;;;-2.06;100.00
62418;BME280;48456;54.242;10.280;2023-04-03T06:24:09;103366.69;;;-1.87;100.00
62418;BME280;48456;54.242;10.280;2023-04-03T06:26:35;103368.03;;;-1.72;100.00
62418;BME280;48456;54.242;10.280;2023-04-03T06:29:02;103364.84;;;-1.48;100.00
62418;BME280;48456;54.242;10.280;2023-04-03T06:31:28;103360.84;;;-1.34;100.00
62418;BME280;48456;54.242;10.280;2023-04-03T06:33:55;103361.53;;;-1.16;100.00
62418;BME280;48456;54.242;10.280;2023-04-03T06:36:22;103370.88;;;-0.97;100.00
62418;BME280;48456;54.242;10.280;2023-04-03T06:38:48;103365.81;;;-0.75;100.00
62418;BME280;48456;54.242;10.280;2023-04-03T06:41:15;103372.00;;;-0.52;100.00
62418;BME280;48456;54.242;10.280;2023-04-03T06:43:43;103376.66;;;-0.37;100.00
62418;BME280;48456;54.242;10.280;2023-04-03T06:46:14;103369.69;;;-0.16;100.00
62418;BME280;48456;54.242;10.280;2023-04-03T06:48:41;103363.75;;;0.07;100.00
62418;BME280;48456;54.242;10.280;2023-04-03T06:51:11;103363.78;;;0.30;100.00
62418;BME280;48456;54.242;10.280;2023-04-03T06:53:39;103371.34;;;0.49;100.00
62418;BME280;48456;54.242;10.280;2023-04-03T06:56:07;103372.25;;;0.72;100.00
62418;BME280;48456;54.242;10.280;2023-04-03T06:58:33;103371.97;;;0.91;100.00
62418;BME280;48456;54.242;10.280;2023-04-03T07:00:59;103374.09;;;1.07;100.00
62418;BME280;48456;54.242;10.280;2023-04-03T07:03:26;103370.94;;;1.23;100.00
62418;BME280;48456;54.242;10.280;2023-04-03T07:05:52;103373.09;;;1.41;100.00
62418;BME280;48456;54.242;10.280;2023-04-03T07:08:19;103370.97;;;1.59;100.00
62418;BME280;48456;54.242;10.280;2023-04-03T07:10:45;103382.91;;;1.67;100.00
62418;BME280;48456;54.242;10.280;2023-04-03T07:13:11;103373.00;;;1.75;100.00
62418;BME280;48456;54.242;10.280;2023-04-03T07:15:38;103382.09;;;1.80;100.00
62418;BME280;48456;54.242;10.280;2023-04-03T07:18:05;103374.78;;;2.12;100.00
62418;BME280;48456;54.242;10.280;2023-04-03T07:20:32;103372.94;;;2.35;100.00
62418;BME280;48456;54.242;10.280;2023-04-03T07:22:58;103378.59;;;2.41;100.00
62418;BME280;48456;54.242;10.280;2023-04-03T07:25:26;103380.16;;;2.51;100.00
62418;BME280;48456;54.242;10.280;2023-04-03T07:27:52;103375.63;;;2.49;100.00
62418;BME280;48456;54.242;10.280;2023-04-03T07:30:20;103381.59;;;2.59;100.00
62418;BME280;48456;54.242;10.280;2023-04-03T07:32:47;103379.25;;;2.76;100.00
62418;BME280;48456;54.242;10.280;2023-04-03T07:35:13;103379.41;;;2.91;100.00
62418;BME280;48456;54.242;10.280;2023-04-03T07:37:39;103380.16;;;3.02;100.00
62418;BME280;48456;54.242;10.280;2023-04-03T07:40:06;103384.44;;;3.14;100.00
62418;BME280;48456;54.242;10.280;2023-04-03T07:42:34;103389.09;;;3.31;100.00
62418;BME280;48456;54.242;10.280;2023-04-03T07:45:01;103384.97;;;3.48;100.00
62418;BME280;48456;54.242;10.280;2023-04-03T07:47:29;103390.31;;;3.63;100.00
62418;BME280;48456;54.242;10.280;2023-04-03T07:49:56;103379.88;;;3.77;100.00
62418;BME280;48456;54.242;10.280;2023-04-03T07:52:23;103378.16;;;3.77;100.00
62418;BME280;48456;54.242;10.280;2023-04-03T07:54:50;103380.88;;;3.79;100.00
62418;BME280;48456;54.242;10.280;2023-04-03T07:57:16;103379.44;;;3.84;100.00
62418;BME280;48456;54.242;10.280;2023-04-03T07:59:42;103381.69;;;3.78;100.00
62418;BME280;48456;54.242;10.280;2023-04-03T08:02:09;103381.84;;;3.81;100.00
62418;BME280;48456;54.242;10.280;2023-04-03T08:04:36;103373.59;;;3.88;100.00
62418;BME280;48456;54.242;10.280;2023-04-03T08:07:02;103370.78;;;3.99;100.00
62418;BME280;48456;54.242;10.280;2023-04-03T08:09:28;103367.03;;;4.09;100.00
62418;BME280;48456;54.242;10.280;2023-04-03T08:11:55;103366.81;;;4.19;100.00
62418;BME280;48456;54.242;10.280;2023-04-03T08:14:21;103360.50;;;4.15;100.00
62418;BME280;48456;54.242;10.280;2023-04-03T08:16:48;103366.41;;;4.13;100.00
62418;BME280;48456;54.242;10.280;2023-04-03T08:19:15;103362.00;;;4.12;100.00
62418;BME280;48456;54.242;10.280;2023-04-03T08:21:52;103366.22;;;4.23;100.00
62418;BME280;48456;54.242;10.280;2023-04-03T08:24:18;103363.25;;;4.32;100.00
62418;BME280;48456;54.242;10.280;2023-04-03T08:26:45;103355.59;;;4.35;100.00
62418;BME280;48456;54.242;10.280;2023-04-03T08:29:11;103356.59;;;4.37;100.00
62418;BME280;48456;54.242;10.280;2023-04-03T08:31:37;103355.44;;;4.47;100.00
62418;BME280;48456;54.242;10.280;2023-04-03T08:34:05;103360.66;;;4.61;100.00
62418;BME280;48456;54.242;10.280;2023-04-03T08:36:31;103354.53;;;4.75;100.00
62418;BME280;48456;54.242;10.280;2023-04-03T08:38:57;103356.97;;;4.72;100.00
62418;BME280;48456;54.242;10.280;2023-04-03T08:41:40;103357.88;;;4.73;100.00
62418;BME280;48456;54.242;10.280;2023-04-03T08:49:27;103353.28;;;4.84;100.00
62418;BME280;48456;54.242;10.280;2023-04-03T08:51:55;103352.13;;;4.93;100.00
62418;BME280;48456;54.242;10.280;2023-04-03T08:54:28;103354.88;;;5.10;100.00
62418;BME280;48456;54.242;10.280;2023-04-03T08:56:55;103356.47;;;5.23;100.00
62418;BME280;48456;54.242;10.280;2023-04-03T08:59:26;103355.69;;;5.24;100.00
62418;BME280;48456;54.242;10.280;2023-04-03T09:01:54;103366.88;;;5.22;100.00
62418;BME280;48456;54.242;10.280;2023-04-03T09:04:21;103362.66;;;5.24;100.00
62418;BME280;48456;54.242;10.280;2023-04-03T09:06:52;103365.91;;;5.35;100.00
62418;BME280;48456;54.242;10.280;2023-04-03T09:09:35;103366.72;;;5.49;100.00
62418;BME280;48456;54.242;10.280;2023-04-03T09:12:06;103363.47;;;5.38;100.00
62418;BME280;48456;54.242;10.280;2023-04-03T09:14:50;103364.81;;;5.61;100.00
62418;BME280;48456;54.242;10.280;2023-04-03T09:22:32;103367.69;;;4.90;100.00
62418;BME280;48456;54.242;10.280;2023-04-03T09:25:15;103366.69;;;4.60;100.00
62418;BME280;48456;54.242;10.280;2023-04-03T09:27:42;103368.47;;;4.46;100.00
62418;BME280;48456;54.242;10.280;2023-04-03T09:30:13;103370.34;;;4.62;100.00
62418;BME280;48456;54.242;10.280;2023-04-03T09:32:40;103368.69;;;4.92;100.00
62418;BME280;48456;54.242;10.280;2023-04-03T09:37:51;103373.47;;;5.60;100.00
62418;BME280;48456;54.242;10.280;2023-04-03T09:40:34;103368.41;;;5.63;100.00
62418;BME280;48456;54.242;10.280;2023-04-03T09:43:08;103374.34;;;5.91;100.00
62418;BME280;48456;54.242;10.280;2023-04-03T09:45:45;103367.09;;;5.87;100.00
62418;BME280;48456;54.242;10.280;2023-04-03T09:55:53;103355.91;;;6.71;100.00
62418;BME280;48456;54.242;10.280;2023-04-03T09:58:27;103351.69;;;6.91;100.00
62418;BME280;48456;54.242;10.280;2023-04-03T10:01:25;103360.03;;;6.82;100.00
62418;BME280;48456;54.242;10.280;2023-04-03T10:06:50;103344.25;;;6.82;100.00
62418;BME280;48456;54.242;10.280;2023-04-03T10:14:25;103340.97;;;6.70;100.00
62418;BME280;48456;54.242;10.280;2023-04-03T10:16:58;103322.47;;;6.35;100.00
62418;BME280;48456;54.242;10.280;2023-04-03T10:22:09;103342.72;;;6.04;100.00
62418;BME280;48456;54.242;10.280;2023-04-03T10:24:44;103324.34;;;5.89;100.00
62418;BME280;48456;54.242;10.280;2023-04-03T10:27:17;103333.44;;;6.11;100.00
62418;BME280;48456;54.242;10.280;2023-04-03T10:32:21;103329.59;;;6.21;100.00
62418;BME280;48456;54.242;10.280;2023-04-03T10:34:58;103324.28;;;6.53;100.00
62418;BME280;48456;54.242;10.280;2023-04-03T10:37:33;103324.34;;;6.71;100.00
62418;BME280;48456;54.242;10.280;2023-04-03T10:40:15;103322.59;;;6.88;100.00
62418;BME280;48456;54.242;10.280;2023-04-03T10:42:50;103308.28;;;6.48;100.00
62418;BME280;48456;54.242;10.280;2023-04-03T10:45:29;103317.47;;;6.91;100.00
62418;BME280;48456;54.242;10.280;2023-04-03T10:48:12;103314.75;;;7.24;100.00
62418;BME280;48456;54.242;10.280;2023-04-03T10:53:54;103302.25;;;7.93;100.00
62418;BME280;48456;54.242;10.280;2023-04-03T10:56:09;103304.00;;;7.74;100.00
62418;BME280;48456;54.242;10.280;2023-04-03T10:58:40;103306.44;;;7.33;100.00
62418;BME280;48456;54.242;10.280;2023-04-03T11:01:11;103317.19;;;6.68;100.00
62418;BME280;48456;54.242;10.280;2023-04-03T11:03:40;103307.78;;;6.90;100.00
62418;BME280;48456;54.242;10.280;2023-04-03T11:06:09;103299.03;;;7.62;100.00
62418;BME280;48456;54.242;10.280;2023-04-03T11:08:42;103303.09;;;9.33;100.00
62418;BME280;48456;54.242;10.280;2023-04-03T11:11:20;103292.59;;;11.01;70.74
62418;BME280;48456;54.242;10.280;2023-04-03T11:13:49;103285.63;;;12.18;55.15
62418;BME280;48456;54.242;10.280;2023-04-03T11:16:20;103283.84;;;13.19;50.56
62418;BME280;48456;54.242;10.280;2023-04-03T11:18:49;103284.81;;;13.21;40.32
62418;BME280;48456;54.242;10.280;2023-04-03T11:23:45;103282.25;;;12.90;40.86
62418;BME280;48456;54.242;10.280;2023-04-03T11:26:16;103273.84;;;12.73;41.36
62418;BME280;48456;54.242;10.280;2023-04-03T11:28:44;103275.94;;;12.20;41.20
62418;BME280;48456;54.242;10.280;2023-04-03T11:36:39;103271.00;;;12.33;47.56
62418;BME280;48456;54.242;10.280;2023-04-03T11:39:10;103262.78;;;12.24;45.03
62418;BME280;48456;54.242;10.280;2023-04-03T11:41:42;103275.59;;;10.69;46.48
62418;BME280;48456;54.242;10.280;2023-04-03T11:46:57;103272.13;;;10.45;54.71
62418;BME280;48456;54.242;10.280;2023-04-03T11:50:07;103263.34;;;8.88;58.00
62418;BME280;48456;54.242;10.280;2023-04-03T11:52:18;103265.53;;;9.19;71.24
62418;BME280;48456;54.242;10.280;2023-04-03T11:55:00;103260.28;;;10.60;53.11
62418;BME280;48456;54.242;10.280;2023-04-03T11:57:43;103248.41;;;11.86;48.72
62418;BME280;48456;54.242;10.280;2023-04-03T12:02:55;103252.19;;;13.28;44.35
62418;BME280;48456;54.242;10.280;2023-04-03T12:05:27;103251.50;;;13.37;44.47
62418;BME280;48456;54.242;10.280;2023-04-03T12:10:39;103248.06;;;13.80;39.85
62418;BME280;48456;54.242;10.280;2023-04-03T12:13:15;103248.09;;;13.81;36.99
62418;BME280;48456;54.242;10.280;2023-04-03T12:20:54;103248.53;;;13.23;39.00
62418;BME280;48456;54.242;10.280;2023-04-03T12:23:31;103245.31;;;12.99;36.42
62418;BME280;48456;54.242;10.280;2023-04-03T12:26:05;103245.13;;;12.92;38.57
62418;BME280;48456;54.242;10.280;2023-04-03T12:28:45;103247.44;;;11.82;37.73
62418;BME280;48456;54.242;10.280;2023-04-03T12:31:12;103241.50;;;12.90;38.33
62418;BME280;48456;54.242;10.280;2023-04-03T12:33:57;103245.97;;;13.28;38.09
62418;BME280;48456;54.242;10.280;2023-04-03T12:36:36;103248.97;;;13.05;40.16
62418;BME280;48456;54.242;10.280;2023-04-03T12:39:52;103248.03;;;13.03;40.45
62418;BME280;48456;54.242;10.280;2023-04-03T12:41:55;103250.63;;;12.64;42.43
62418;BME280;48456;54.242;10.280;2023-04-03T12:44:33;103246.63;;;12.46;41.68
62418;BME280;48456;54.242;10.280;2023-04-03T12:47:08;103246.69;;;12.17;41.22
62418;BME280;48456;54.242;10.280;2023-04-03T12:49:43;103244.66;;;12.74;40.32
62418;BME280;48456;54.242;10.280;2023-04-03T12:54:49;103247.38;;;12.42;40.23
62418;BME280;48456;54.242;10.280;2023-04-03T12:57:20;103243.34;;;12.25;43.70
62418;BME280;48456;54.242;10.280;2023-04-03T12:59:49;103239.66;;;12.52;43.05
62418;BME280;48456;54.242;10.280;2023-04-03T13:02:26;103242.75;;;12.69;40.72
62418;BME280;48456;54.242;10.280;2023-04-03T13:04:55;103240.13;;;12.70;40.72
62418;BME280;48456;54.242;10.280;2023-04-03T13:07:31;103241.00;;;11.74;42.45
62418;BME280;48456;54.242;10.280;2023-04-03T13:12:33;103242.13;;;11.53;45.86
62418;BME280;48456;54.242;10.280;2023-04-03T13:15:01;103240.53;;;11.29;45.75
62418;BME280;48456;54.242;10.280;2023-04-03T13:17:30;103238.81;;;11.31;45.83
62418;BME280;48456;54.242;10.280;2023-04-03T13:20:09;103230.69;;;11.25;47.13
62418;BME280;48456;54.242;10.280;2023-04-03T13:22:36;103243.47;;;11.68;46.42
62418;BME280;48456;54.242;10.280;2023-04-03T13:25:10;103235.03;;;12.44;43.22
62418;BME280;48456;54.242;10.280;2023-04-03T13:27:37;103235.94;;;12.45;42.44
62418;BME280;48456;54.242;10.280;2023-04-03T13:30:05;103236.44;;;12.64;37.96
62418;BME280;48456;54.242;10.280;2023-04-03T13:32:32;103240.72;;;12.26;38.14
62418;BME280;48456;54.242;10.280;2023-04-03T13:34:59;103239.41;;;11.50;40.79
62418;BME280;48456;54.242;10.280;2023-04-03T13:37:52;103231.59;;;11.55;42.21
62418;BME280;48456;54.242;10.280;2023-04-03T13:40:19;103228.19;;;11.90;41.12
62418;BME280;48456;54.242;10.280;2023-04-03T13:42:46;103230.13;;;11.95;40.71
62418;BME280;48456;54.242;10.280;2023-04-03T13:45:25;103220.16;;;11.87;40.83
62418;BME280;48456;54.242;10.280;2023-04-03T13:50:51;103218.38;;;12.50;43.13
62418;BME280;48456;54.242;10.280;2023-04-03T13:53:18;103217.47;;;12.50;44.13
62418;BME280;48456;54.242;10.280;2023-04-03T13:58:29;103215.56;;;11.81;45.02
62418;BME280;48456;54.242;10.280;2023-04-03T14:03:40;103209.75;;;11.94;44.44
62418;BME280;48456;54.242;10.280;2023-04-03T14:06:08;103214.22;;;11.65;48.28